sensor_id;sensor_type;location;lat;lon;timestamp;temperature;humidity
43581;DHT22;29175;51.030;4.606;2022-08-19T00:00:30;21.10;99.90
43581;DHT22;29175;51.030;4.606;2022-08-19T00:02:58;21.10;99.90
43581;DHT22;29175;51.030;4.606;2022-08-19T00:05:26;21.10;99.90
43581;DHT22;29175;51.030;4.606;2022-08-19T00:07:53;21.10;99.90
43581;DHT22;29175;51.030;4.606;2022-08-19T00:10:21;21.10;99.90
43581;DHT22;29175;51.030;4.606;2022-08-19T00:12:47;21.10;99.90
43581;DHT22;29175;51.030;4.606;2022-08-19T00:15:16;21.20;99.90
43581;DHT22;29175;51.030;4.606;2022-08-19T00:17:43;21.20;99.90
43581;DHT22;29175;51.030;4.606;2022-08-19T00:20:15;21.20;99.90
43581;DHT22;29175;51.030;4.606;2022-08-19T00:22:44;21.20;99.90
43581;DHT22;29175;51.030;4.606;2022-08-19T00:25:10;21.10;99.90
43581;DHT22;29175;51.030;4.606;2022-08-19T00:27:36;21.10;99.90
43581;DHT22;29175;51.030;4.606;2022-08-19T00:30:05;21.10;99.90
43581;DHT22;29175;51.030;4.606;2022-08-19T00:32:33;21.10;99.90
43581;DHT22;29175;51.030;4.606;2022-08-19T00:35:00;21.10;99.90
43581;DHT22;29175;51.030;4.606;2022-08-19T00:37:27;21.00;99.90
43581;DHT22;29175;51.030;4.606;2022-08-19T00:39:54;20.90;99.90
43581;DHT22;29175;51.030;4.606;2022-08-19T00:42:24;20.90;99.90
43581;DHT22;29175;51.030;4.606;2022-08-19T00:44:53;20.90;99.90
43581;DHT22;29175;51.030;4.606;2022-08-19T00:47:19;20.80;99.90
43581;DHT22;29175;51.030;4.606;2022-08-19T00:49:51;20.80;99.90
43581;DHT22;29175;51.030;4.606;2022-08-19T00:52:28;20.80;99.90
43581;DHT22;29175;51.030;4.606;2022-08-19T00:54:56;20.80;99.90
43581;DHT22;29175;51.030;4.606;2022-08-19T00:57:30;20.80;99.90
43581;DHT22;29175;51.030;4.606;2022-08-19T01:00:03;20.80;99.90
43581;DHT22;29175;51.030;4.606;2022-08-19T01:02:31;20.70;99.90
43581;DHT22;29175;51.030;4.606;2022-08-19T01:04:58;20.80;99.90
43581;DHT22;29175;51.030;4.606;2022-08-19T01:07:26;20.70;99.90
43581;DHT22;29175;51.030;4.606;2022-08-19T01:09:52;20.70;99.90
43581;DHT22;29175;51.030;4.606;2022-08-19T01:12:20;20.60;99.90
43581;DHT22;29175;51.030;4.606;2022-08-19T01:14:47;20.60;99.90
43581;DHT22;29175;51.030;4.606;2022-08-19T01:17:15;20.70;99.90
43581;DHT22;29175;51.030;4.606;2022-08-19T01:19:45;20.60;99.90
43581;DHT22;29175;51.030;4.606;2022-08-19T01:22:26;20.60;99.90
43581;DHT22;29175;51.030;4.606;2022-08-19T01:24:54;20.60;99.90
43581;DHT22;29175;51.030;4.606;2022-08-19T01:27:21;20.60;99.90
43581;DHT22;29175;51.030;4.606;2022-08-19T01:29:48;20.60;99.90
43581;DHT22;29175;51.030;4.606;2022-08-19T01:32:16;20.50;99.90
43581;DHT22;29175;51.030;4.606;2022-08-19T01:34:43;20.50;99.90
43581;DHT22;29175;51.030;4.606;2022-08-19T01:37:15;20.50;99.90
43581;DHT22;29175;51.030;4.606;2022-08-19T01:39:41;20.50;99.90
43581;DHT22;29175;51.030;4.606;2022-08-19T01:42:09;20.50;99.90
43581;DHT22;29175;51.030;4.606;2022-08-19T01:44:39;20.50;99.90
43581;DHT22;29175;51.030;4.606;2022-08-19T01:47:08;20.50;99.90
43581;DHT22;29175;51.030;4.606;2022-08-19T01:49:36;20.40;99.90
43581;DHT22;29175;51.030;4.606;2022-08-19T01:52:04;20.30;99.90
43581;DHT22;29175;51.030;4.606;2022-08-19T01:54:31;20.30;99.90
43581;DHT22;29175;51.030;4.606;2022-08-19T01:57:04;20.40;99.90
43581;DHT22;29175;51.030;4.606;2022-08-19T01:59:31;20.40;99.90
43581;DHT22;29175;51.030;4.606;2022-08-19T02:01:58;20.40;99.90
43581;DHT22;29175;51.030;4.606;2022-08-19T02:04:24;20.40;99.90
43581;DHT22;29175;51.030;4.606;2022-08-19T02:06:53;20.40;99.90
43581;DHT22;29175;51.030;4.606;2022-08-19T02:09:21;20.30;99.90
43581;DHT22;29175;51.030;4.606;2022-08-19T02:11:48;20.40;99.90
43581;DHT22;29175;51.030;4.606;2022-08-19T02:14:13;20.40;99.90
43581;DHT22;29175;51.030;4.606;2022-08-19T02:16:39;20.40;99.90
43581;DHT22;29175;51.030;4.606;2022-08-19T02:19:05;20.40;99.90
43581;DHT22;29175;51.030;4.606;2022-08-19T02:21:32;20.40;99.90
43581;DHT22;29175;51.030;4.606;2022-08-19T02:23:59;20.40;99.90
43581;DHT22;29175;51.030;4.606;2022-08-19T02:26:25;20.40;99.90
43581;DHT22;29175;51.030;4.606;2022-08-19T02:28:53;20.40;99.90
43581;DHT22;29175;51.030;4.606;2022-08-19T02:31:22;20.40;99.90
43581;DHT22;29175;51.030;4.606;2022-08-19T02:33:49;20.40;99.90
43581;DHT22;29175;51.030;4.606;2022-08-19T02:36:16;20.30;99.90
43581;DHT22;29175;51.030;4.606;2022-08-19T02:38:43;20.30;99.90
43581;DHT22;29175;51.030;4.606;2022-08-19T02:41:19;20.20;99.90
43581;DHT22;29175;51.030;4.606;2022-08-19T02:43:47;20.20;99.90
43581;DHT22;29175;51.030;4.606;2022-08-19T02:46:16;20.10;99.90
43581;DHT22;29175;51.030;4.606;2022-08-19T02:48:44;20.10;99.90
43581;DHT22;29175;51.030;4.606;2022-08-19T02:51:17;20.10;99.90
43581;DHT22;29175;51.030;4.606;2022-08-19T02:53:43;20.10;99.90
43581;DHT22;29175;51.030;4.606;2022-08-19T02:56:08;20.10;99.90
43581;DHT22;29175;51.030;4.606;2022-08-19T02:58:35;20.10;99.90
43581;DHT22;29175;51.030;4.606;2022-08-19T03:01:03;20.10;99.90
43581;DHT22;29175;51.030;4.606;2022-08-19T03:03:31;20.00;99.90
43581;DHT22;29175;51.030;4.606;2022-08-19T03:06:12;20.00;99.90
43581;DHT22;29175;51.030;4.606;2022-08-19T03:08:42;20.00;99.90
43581;DHT22;29175;51.030;4.606;2022-08-19T03:11:17;19.90;99.90
43581;DHT22;29175;51.030;4.606;2022-08-19T03:13:44;20.00;99.90
43581;DHT22;29175;51.030;4.606;2022-08-19T03:16:12;19.90;99.90
43581;DHT22;29175;51.030;4.606;2022-08-19T03:18:38;19.90;99.90
43581;DHT22;29175;51.030;4.606;2022-08-19T03:21:05;19.80;99.90
43581;DHT22;29175;51.030;4.606;2022-08-19T03:23:32;19.80;99.90
43581;DHT22;29175;51.030;4.606;2022-08-19T03:25:58;19.70;99.90
43581;DHT22;29175;51.030;4.606;2022-08-19T03:28:23;19.70;99.90
43581;DHT22;29175;51.030;4.606;2022-08-19T03:31:01;19.70;99.90
43581;DHT22;29175;51.030;4.606;2022-08-19T03:33:29;19.70;99.90
43581;DHT22;29175;51.030;4.606;2022-08-19T03:38:35;19.60;99.90
43581;DHT22;29175;51.030;4.606;2022-08-19T03:41:09;19.60;99.90
43581;DHT22;29175;51.030;4.606;2022-08-19T03:43:39;19.60;99.90
43581;DHT22;29175;51.030;4.606;2022-08-19T03:46:11;19.60;99.90
43581;DHT22;29175;51.030;4.606;2022-08-19T03:48:40;19.60;99.90
43581;DHT22;29175;51.030;4.606;2022-08-19T03:51:08;19.60;99.90
43581;DHT22;29175;51.030;4.606;2022-08-19T03:53:40;19.50;99.90
43581;DHT22;29175;51.030;4.606;2022-08-19T03:56:08;19.40;99.90
43581;DHT22;29175;51.030;4.606;2022-08-19T03:58:34;19.40;99.90
43581;DHT22;29175;51.030;4.606;2022-08-19T04:00:59;19.40;99.90
43581;DHT22;29175;51.030;4.606;2022-08-19T04:03:25;19.50;99.90
43581;DHT22;29175;51.030;4.606;2022-08-19T04:05:52;19.50;99.90
43581;DHT22;29175;51.030;4.606;2022-08-19T04:08:20;19.50;99.90
43581;DHT22;29175;51.030;4.606;2022-08-19T04:10:49;19.40;99.90
43581;DHT22;29175;51.030;4.606;2022-08-19T04:13:17;19.40;99.90
43581;DHT22;29175;51.030;4.606;2022-08-19T04:15:45;19.40;99.90
43581;DHT22;29175;51.030;4.606;2022-08-19T04:18:12;19.40;99.90
43581;DHT22;29175;51.030;4.606;2022-08-19T04:20:46;19.40;99.90
43581;DHT22;29175;51.030;4.606;2022-08-19T04:23:14;19.40;99.90
43581;DHT22;29175;51.030;4.606;2022-08-19T04:25:44;19.30;99.90
43581;DHT22;29175;51.030;4.606;2022-08-19T04:28:12;19.30;99.90
43581;DHT22;29175;51.030;4.606;2022-08-19T04:30:44;19.30;99.90
43581;DHT22;29175;51.030;4.606;2022-08-19T04:33:12;19.30;99.90
43581;DHT22;29175;51.030;4.606;2022-08-19T04:35:42;19.30;99.90
43581;DHT22;29175;51.030;4.606;2022-08-19T04:38:11;19.20;99.90
43581;DHT22;29175;51.030;4.606;2022-08-19T04:40:41;19.30;99.90
43581;DHT22;29175;51.030;4.606;2022-08-19T04:43:29;19.30;99.90
43581;DHT22;29175;51.030;4.606;2022-08-19T04:45:55;19.30;99.90
43581;DHT22;29175;51.030;4.606;2022-08-19T04:48:23;19.20;99.90
43581;DHT22;29175;51.030;4.606;2022-08-19T04:50:53;19.10;99.90
43581;DHT22;29175;51.030;4.606;2022-08-19T04:53:33;19.20;99.90
43581;DHT22;29175;51.030;4.606;2022-08-19T04:56:05;19.20;99.90
43581;DHT22;29175;51.030;4.606;2022-08-19T04:58:33;19.20;99.90
43581;DHT22;29175;51.030;4.606;2022-08-19T05:01:00;19.10;99.90
43581;DHT22;29175;51.030;4.606;2022-08-19T05:03:26;19.30;99.90
43581;DHT22;29175;51.030;4.606;2022-08-19T05:05:53;19.20;99.90
43581;DHT22;29175;51.030;4.606;2022-08-19T05:08:21;19.20;99.90
43581;DHT22;29175;51.030;4.606;2022-08-19T05:10:51;19.30;99.90
43581;DHT22;29175;51.030;4.606;2022-08-19T05:13:19;19.40;99.90
43581;DHT22;29175;51.030;4.606;2022-08-19T05:15:58;19.40;99.90
43581;DHT22;29175;51.030;4.606;2022-08-19T05:18:27;19.50;99.90
43581;DHT22;29175;51.030;4.606;2022-08-19T05:21:16;19.40;99.90
43581;DHT22;29175;51.030;4.606;2022-08-19T05:24:02;19.60;99.90
43581;DHT22;29175;51.030;4.606;2022-08-19T05:26:28;19.70;99.90
43581;DHT22;29175;51.030;4.606;2022-08-19T05:28:54;19.70;99.90
43581;DHT22;29175;51.030;4.606;2022-08-19T05:31:21;19.80;99.90
43581;DHT22;29175;51.030;4.606;2022-08-19T05:33:48;19.90;99.90
43581;DHT22;29175;51.030;4.606;2022-08-19T05:36:21;19.90;99.90
43581;DHT22;29175;51.030;4.606;2022-08-19T05:38:46;19.90;99.90
43581;DHT22;29175;51.030;4.606;2022-08-19T05:41:14;19.90;99.90
43581;DHT22;29175;51.030;4.606;2022-08-19T05:43:42;20.00;99.90
43581;DHT22;29175;51.030;4.606;2022-08-19T05:46:19;20.10;99.90
43581;DHT22;29175;51.030;4.606;2022-08-19T05:48:46;20.20;99.90
43581;DHT22;29175;51.030;4.606;2022-08-19T05:51:13;20.30;99.90
43581;DHT22;29175;51.030;4.606;2022-08-19T05:53:40;20.50;99.90
43581;DHT22;29175;51.030;4.606;2022-08-19T05:56:12;20.30;99.90
43581;DHT22;29175;51.030;4.606;2022-08-19T05:58:38;20.60;99.90
43581;DHT22;29175;51.030;4.606;2022-08-19T06:01:09;20.80;99.90
43581;DHT22;29175;51.030;4.606;2022-08-19T06:03:36;21.00;99.90
43581;DHT22;29175;51.030;4.606;2022-08-19T06:06:04;21.10;99.90
43581;DHT22;29175;51.030;4.606;2022-08-19T06:08:31;21.30;99.90
43581;DHT22;29175;51.030;4.606;2022-08-19T06:10:58;21.50;99.90
43581;DHT22;29175;51.030;4.606;2022-08-19T06:13:37;21.60;99.90
43581;DHT22;29175;51.030;4.606;2022-08-19T06:16:04;21.50;99.90
43581;DHT22;29175;51.030;4.606;2022-08-19T06:18:32;21.40;99.90
43581;DHT22;29175;51.030;4.606;2022-08-19T06:20:59;21.60;99.90
43581;DHT22;29175;51.030;4.606;2022-08-19T06:23:29;21.80;99.90
43581;DHT22;29175;51.030;4.606;2022-08-19T06:25:54;21.90;99.90
43581;DHT22;29175;51.030;4.606;2022-08-19T06:28:21;21.90;99.90
43581;DHT22;29175;51.030;4.606;2022-08-19T06:30:49;22.00;99.90
43581;DHT22;29175;51.030;4.606;2022-08-19T06:33:16;22.10;99.90
43581;DHT22;29175;51.030;4.606;2022-08-19T06:35:43;22.30;99.90
43581;DHT22;29175;51.030;4.606;2022-08-19T06:38:09;22.60;99.90
43581;DHT22;29175;51.030;4.606;2022-08-19T06:40:36;22.70;99.90
43581;DHT22;29175;51.030;4.606;2022-08-19T06:43:03;22.90;99.90
43581;DHT22;29175;51.030;4.606;2022-08-19T06:45:30;22.80;99.90
43581;DHT22;29175;51.030;4.606;2022-08-19T06:47:56;22.90;99.90
43581;DHT22;29175;51.030;4.606;2022-08-19T06:50:23;22.50;99.90
43581;DHT22;29175;51.030;4.606;2022-08-19T06:52:50;22.10;99.90
43581;DHT22;29175;51.030;4.606;2022-08-19T06:55:17;22.20;99.90
43581;DHT22;29175;51.030;4.606;2022-08-19T06:57:44;22.40;99.90
43581;DHT22;29175;51.030;4.606;2022-08-19T07:00:12;22.30;99.90
43581;DHT22;29175;51.030;4.606;2022-08-19T07:02:41;22.40;99.90
43581;DHT22;29175;51.030;4.606;2022-08-19T07:05:09;22.50;99.90
43581;DHT22;29175;51.030;4.606;2022-08-19T07:07:35;22.40;99.90
43581;DHT22;29175;51.030;4.606;2022-08-19T07:10:03;22.50;99.90
43581;DHT22;29175;51.030;4.606;2022-08-19T07:12:31;22.90;99.90
43581;DHT22;29175;51.030;4.606;2022-08-19T07:15:03;23.00;99.90
43581;DHT22;29175;51.030;4.606;2022-08-19T07:17:30;23.20;99.90
43581;DHT22;29175;51.030;4.606;2022-08-19T07:19:58;23.20;99.90
43581;DHT22;29175;51.030;4.606;2022-08-19T07:22:24;23.40;99.90
43581;DHT22;29175;51.030;4.606;2022-08-19T07:24:51;23.60;99.90
43581;DHT22;29175;51.030;4.606;2022-08-19T07:27:16;23.70;99.90
43581;DHT22;29175;51.030;4.606;2022-08-19T07:29:42;23.10;99.90
43581;DHT22;29175;51.030;4.606;2022-08-19T07:32:07;22.60;99.90
43581;DHT22;29175;51.030;4.606;2022-08-19T07:34:34;22.80;99.90
43581;DHT22;29175;51.030;4.606;2022-08-19T07:37:05;23.00;99.90
43581;DHT22;29175;51.030;4.606;2022-08-19T07:39:35;23.10;99.90
43581;DHT22;29175;51.030;4.606;2022-08-19T07:42:04;23.30;99.90
43581;DHT22;29175;51.030;4.606;2022-08-19T07:44:33;24.30;99.90
43581;DHT22;29175;51.030;4.606;2022-08-19T07:46:59;24.80;99.90
43581;DHT22;29175;51.030;4.606;2022-08-19T07:49:25;25.00;99.90
43581;DHT22;29175;51.030;4.606;2022-08-19T07:52:05;24.70;99.90
43581;DHT22;29175;51.030;4.606;2022-08-19T07:54:33;25.00;99.90
43581;DHT22;29175;51.030;4.606;2022-08-19T07:57:01;25.00;99.90
43581;DHT22;29175;51.030;4.606;2022-08-19T07:59:28;24.80;99.90
43581;DHT22;29175;51.030;4.606;2022-08-19T08:01:57;24.90;99.90
43581;DHT22;29175;51.030;4.606;2022-08-19T08:04:26;24.80;99.90
43581;DHT22;29175;51.030;4.606;2022-08-19T08:07:10;24.50;99.90
43581;DHT22;29175;51.030;4.606;2022-08-19T08:09:54;24.00;99.90
43581;DHT22;29175;51.030;4.606;2022-08-19T08:12:34;23.90;99.90
43581;DHT22;29175;51.030;4.606;2022-08-19T08:15:06;23.70;99.90
43581;DHT22;29175;51.030;4.606;2022-08-19T08:17:34;23.70;99.90
43581;DHT22;29175;51.030;4.606;2022-08-19T08:20:00;23.90;99.90
43581;DHT22;29175;51.030;4.606;2022-08-19T08:22:25;23.80;99.90
43581;DHT22;29175;51.030;4.606;2022-08-19T08:25:17;23.70;99.90
43581;DHT22;29175;51.030;4.606;2022-08-19T08:27:45;23.70;99.90
43581;DHT22;29175;51.030;4.606;2022-08-19T08:30:15;23.90;99.90
43581;DHT22;29175;51.030;4.606;2022-08-19T08:32:41;23.80;99.90
43581;DHT22;29175;51.030;4.606;2022-08-19T08:35:10;24.60;99.90
43581;DHT22;29175;51.030;4.606;2022-08-19T08:37:36;25.20;99.90
43581;DHT22;29175;51.030;4.606;2022-08-19T08:40:23;25.80;99.90
43581;DHT22;29175;51.030;4.606;2022-08-19T08:43:03;26.00;99.90
43581;DHT22;29175;51.030;4.606;2022-08-19T08:45:33;25.80;99.90
43581;DHT22;29175;51.030;4.606;2022-08-19T08:48:04;25.60;99.90
43581;DHT22;29175;51.030;4.606;2022-08-19T08:50:37;25.60;99.90
43581;DHT22;29175;51.030;4.606;2022-08-19T08:53:06;25.20;99.90
43581;DHT22;29175;51.030;4.606;2022-08-19T08:55:33;24.90;99.90
43581;DHT22;29175;51.030;4.606;2022-08-19T08:58:11;24.60;99.90
43581;DHT22;29175;51.030;4.606;2022-08-19T09:00:45;24.60;99.90
43581;DHT22;29175;51.030;4.606;2022-08-19T09:03:20;24.70;99.90
43581;DHT22;29175;51.030;4.606;2022-08-19T09:08:54;24.70;99.90
43581;DHT22;29175;51.030;4.606;2022-08-19T09:11:55;24.80;99.90
43581;DHT22;29175;51.030;4.606;2022-08-19T09:17:11;24.70;99.90
43581;DHT22;29175;51.030;4.606;2022-08-19T09:22:14;24.30;99.90
43581;DHT22;29175;51.030;4.606;2022-08-19T09:24:40;24.40;99.90
43581;DHT22;29175;51.030;4.606;2022-08-19T09:27:06;24.10;99.90
43581;DHT22;29175;51.030;4.606;2022-08-19T09:29:31;24.30;99.90
43581;DHT22;29175;51.030;4.606;2022-08-19T09:31:57;24.50;99.90
43581;DHT22;29175;51.030;4.606;2022-08-19T09:34:22;24.70;99.90
43581;DHT22;29175;51.030;4.606;2022-08-19T09:36:49;24.80;99.90
43581;DHT22;29175;51.030;4.606;2022-08-19T09:39:20;24.90;99.90
43581;DHT22;29175;51.030;4.606;2022-08-19T09:41:45;24.80;99.90
43581;DHT22;29175;51.030;4.606;2022-08-19T09:44:11;24.90;99.90
43581;DHT22;29175;51.030;4.606;2022-08-19T09:46:38;25.00;99.90
43581;DHT22;29175;51.030;4.606;2022-08-19T09:49:03;25.00;99.90
43581;DHT22;29175;51.030;4.606;2022-08-19T09:51:32;24.90;99.90
43581;DHT22;29175;51.030;4.606;2022-08-19T09:54:02;25.00;99.90
43581;DHT22;29175;51.030;4.606;2022-08-19T09:56:29;25.10;99.90
43581;DHT22;29175;51.030;4.606;2022-08-19T09:58:58;25.30;99.90
43581;DHT22;29175;51.030;4.606;2022-08-19T10:01:27;25.40;99.90
43581;DHT22;29175;51.030;4.606;2022-08-19T10:03:55;25.50;99.90
43581;DHT22;29175;51.030;4.606;2022-08-19T10:06:25;25.00;99.90
43581;DHT22;29175;51.030;4.606;2022-08-19T10:08:53;25.30;99.90
43581;DHT22;29175;51.030;4.606;2022-08-19T10:11:20;25.20;99.90
43581;DHT22;29175;51.030;4.606;2022-08-19T10:13:46;25.10;99.90
43581;DHT22;29175;51.030;4.606;2022-08-19T10:16:16;24.90;99.90
43581;DHT22;29175;51.030;4.606;2022-08-19T10:18:44;25.10;99.90
43581;DHT22;29175;51.030;4.606;2022-08-19T10:21:13;25.50;99.90
43581;DHT22;29175;51.030;4.606;2022-08-19T10:23:42;25.20;99.90
43581;DHT22;29175;51.030;4.606;2022-08-19T10:26:17;25.50;99.90
43581;DHT22;29175;51.030;4.606;2022-08-19T10:28:45;25.80;99.90
43581;DHT22;29175;51.030;4.606;2022-08-19T10:31:17;26.10;99.90
43581;DHT22;29175;51.030;4.606;2022-08-19T10:33:47;26.00;99.90
43581;DHT22;29175;51.030;4.606;2022-08-19T10:36:17;26.20;99.90
43581;DHT22;29175;51.030;4.606;2022-08-19T10:38:46;26.20;99.90
43581;DHT22;29175;51.030;4.606;2022-08-19T10:41:17;26.10;99.90
43581;DHT22;29175;51.030;4.606;2022-08-19T10:43:44;25.80;99.90
43581;DHT22;29175;51.030;4.606;2022-08-19T10:46:14;26.00;99.90
43581;DHT22;29175;51.030;4.606;2022-08-19T10:48:42;26.70;99.90
43581;DHT22;29175;51.030;4.606;2022-08-19T10:51:10;27.10;99.90
43581;DHT22;29175;51.030;4.606;2022-08-19T10:53:55;27.40;99.80
43581;DHT22;29175;51.030;4.606;2022-08-19T10:56:21;27.50;99.60
43581;DHT22;29175;51.030;4.606;2022-08-19T10:59:06;27.50;98.90
43581;DHT22;29175;51.030;4.606;2022-08-19T11:01:33;27.60;99.10
43581;DHT22;29175;51.030;4.606;2022-08-19T11:04:02;27.60;99.10
43581;DHT22;29175;51.030;4.606;2022-08-19T11:06:28;27.60;98.50
43581;DHT22;29175;51.030;4.606;2022-08-19T11:08:55;27.90;98.50
43581;DHT22;29175;51.030;4.606;2022-08-19T11:11:23;27.90;98.00
43581;DHT22;29175;51.030;4.606;2022-08-19T11:13:49;28.00;97.80
43581;DHT22;29175;51.030;4.606;2022-08-19T11:16:18;27.90;98.00
43581;DHT22;29175;51.030;4.606;2022-08-19T11:18:53;28.00;97.20
43581;DHT22;29175;51.030;4.606;2022-08-19T11:21:24;27.90;97.10
43581;DHT22;29175;51.030;4.606;2022-08-19T11:23:52;28.00;97.30
43581;DHT22;29175;51.030;4.606;2022-08-19T11:26:19;28.00;96.70
43581;DHT22;29175;51.030;4.606;2022-08-19T11:28:48;27.90;96.80
43581;DHT22;29175;51.030;4.606;2022-08-19T11:31:20;27.40;97.30
43581;DHT22;29175;51.030;4.606;2022-08-19T11:33:46;27.40;97.70
43581;DHT22;29175;51.030;4.606;2022-08-19T11:36:17;27.10;98.10
43581;DHT22;29175;51.030;4.606;2022-08-19T11:38:44;26.80;98.40
43581;DHT22;29175;51.030;4.606;2022-08-19T11:41:10;26.80;98.60
43581;DHT22;29175;51.030;4.606;2022-08-19T11:43:37;27.10;98.70
43581;DHT22;29175;51.030;4.606;2022-08-19T11:46:08;27.00;98.70
43581;DHT22;29175;51.030;4.606;2022-08-19T11:48:35;26.80;99.50
43581;DHT22;29175;51.030;4.606;2022-08-19T11:51:05;27.10;99.00
43581;DHT22;29175;51.030;4.606;2022-08-19T11:53:31;27.00;99.30
43581;DHT22;29175;51.030;4.606;2022-08-19T11:55:57;26.70;99.60
43581;DHT22;29175;51.030;4.606;2022-08-19T11:58:23;27.10;99.60
43581;DHT22;29175;51.030;4.606;2022-08-19T12:00:50;27.60;99.10
43581;DHT22;29175;51.030;4.606;2022-08-19T12:03:16;27.90;98.40
43581;DHT22;29175;51.030;4.606;2022-08-19T12:05:44;28.20;97.70
43581;DHT22;29175;51.030;4.606;2022-08-19T12:08:09;28.30;97.30
43581;DHT22;29175;51.030;4.606;2022-08-19T12:10:38;27.90;97.40
43581;DHT22;29175;51.030;4.606;2022-08-19T12:13:04;27.50;98.20
43581;DHT22;29175;51.030;4.606;2022-08-19T12:15:29;27.90;98.40
43581;DHT22;29175;51.030;4.606;2022-08-19T12:17:57;28.00;97.80
43581;DHT22;29175;51.030;4.606;2022-08-19T12:20:24;28.70;97.10
43581;DHT22;29175;51.030;4.606;2022-08-19T12:22:50;28.80;96.50
43581;DHT22;29175;51.030;4.606;2022-08-19T12:25:16;28.60;96.50
43581;DHT22;29175;51.030;4.606;2022-08-19T12:27:43;28.70;96.90
43581;DHT22;29175;51.030;4.606;2022-08-19T12:30:11;29.00;96.40
43581;DHT22;29175;51.030;4.606;2022-08-19T12:32:39;28.30;95.80
43581;DHT22;29175;51.030;4.606;2022-08-19T12:35:06;28.50;96.20
43581;DHT22;29175;51.030;4.606;2022-08-19T12:37:32;28.70;95.60
43581;DHT22;29175;51.030;4.606;2022-08-19T12:39:58;28.80;95.90
43581;DHT22;29175;51.030;4.606;2022-08-19T12:42:24;29.00;95.70
43581;DHT22;29175;51.030;4.606;2022-08-19T12:44:53;28.90;95.30
43581;DHT22;29175;51.030;4.606;2022-08-19T12:47:19;29.00;95.20
43581;DHT22;29175;51.030;4.606;2022-08-19T12:49:45;28.60;95.70
43581;DHT22;29175;51.030;4.606;2022-08-19T12:52:12;28.00;96.10
43581;DHT22;29175;51.030;4.606;2022-08-19T12:54:41;27.90;96.60
43581;DHT22;29175;51.030;4.606;2022-08-19T12:57:08;27.90;96.70
43581;DHT22;29175;51.030;4.606;2022-08-19T12:59:38;28.40;96.60
43581;DHT22;29175;51.030;4.606;2022-08-19T13:02:05;28.00;95.90
43581;DHT22;29175;51.030;4.606;2022-08-19T13:04:33;28.10;96.00
43581;DHT22;29175;51.030;4.606;2022-08-19T13:07:02;28.40;95.70
43581;DHT22;29175;51.030;4.606;2022-08-19T13:09:27;28.30;95.90
43581;DHT22;29175;51.030;4.606;2022-08-19T13:12:14;28.30;95.90
43581;DHT22;29175;51.030;4.606;2022-08-19T13:14:43;28.50;95.50
43581;DHT22;29175;51.030;4.606;2022-08-19T13:17:11;28.00;96.20
43581;DHT22;29175;51.030;4.606;2022-08-19T13:19:40;28.10;96.30
43581;DHT22;29175;51.030;4.606;2022-08-19T13:22:06;28.60;96.00
43581;DHT22;29175;51.030;4.606;2022-08-19T13:24:31;28.90;95.60
43581;DHT22;29175;51.030;4.606;2022-08-19T13:26:59;29.30;95.10
43581;DHT22;29175;51.030;4.606;2022-08-19T13:29:28;29.60;94.90
43581;DHT22;29175;51.030;4.606;2022-08-19T13:32:12;29.50;93.60
43581;DHT22;29175;51.030;4.606;2022-08-19T13:34:58;29.40;94.30
43581;DHT22;29175;51.030;4.606;2022-08-19T13:37:24;29.50;94.10
43581;DHT22;29175;51.030;4.606;2022-08-19T13:40:11;29.50;93.90
43581;DHT22;29175;51.030;4.606;2022-08-19T13:42:39;29.60;93.70
43581;DHT22;29175;51.030;4.606;2022-08-19T13:45:06;29.30;93.60
43581;DHT22;29175;51.030;4.606;2022-08-19T13:47:33;29.40;93.70
43581;DHT22;29175;51.030;4.606;2022-08-19T13:50:03;29.80;93.40
43581;DHT22;29175;51.030;4.606;2022-08-19T13:52:29;29.40;93.40
43581;DHT22;29175;51.030;4.606;2022-08-19T13:54:54;29.00;93.60
43581;DHT22;29175;51.030;4.606;2022-08-19T13:57:22;29.30;93.60
43581;DHT22;29175;51.030;4.606;2022-08-19T13:59:47;29.10;93.30
43581;DHT22;29175;51.030;4.606;2022-08-19T14:02:14;28.90;93.80
43581;DHT22;29175;51.030;4.606;2022-08-19T14:04:43;28.70;94.10
43581;DHT22;29175;51.030;4.606;2022-08-19T14:07:10;28.60;94.50
43581;DHT22;29175;51.030;4.606;2022-08-19T14:09:36;28.70;93.80
43581;DHT22;29175;51.030;4.606;2022-08-19T14:12:02;29.20;93.90
43581;DHT22;29175;51.030;4.606;2022-08-19T14:14:27;29.60;93.10
43581;DHT22;29175;51.030;4.606;2022-08-19T14:16:54;29.60;93.10
43581;DHT22;29175;51.030;4.606;2022-08-19T14:19:21;29.30;93.60
43581;DHT22;29175;51.030;4.606;2022-08-19T14:21:47;29.10;93.70
43581;DHT22;29175;51.030;4.606;2022-08-19T14:24:13;28.90;93.60
43581;DHT22;29175;51.030;4.606;2022-08-19T14:26:39;28.90;94.00
43581;DHT22;29175;51.030;4.606;2022-08-19T14:29:04;28.90;93.90
43581;DHT22;29175;51.030;4.606;2022-08-19T14:31:30;29.10;94.00
43581;DHT22;29175;51.030;4.606;2022-08-19T14:33:57;29.00;94.20
43581;DHT22;29175;51.030;4.606;2022-08-19T14:36:22;28.90;94.10
43581;DHT22;29175;51.030;4.606;2022-08-19T14:38:48;28.80;94.10
43581;DHT22;29175;51.030;4.606;2022-08-19T14:41:15;29.10;93.20
43581;DHT22;29175;51.030;4.606;2022-08-19T14:43:44;29.10;93.40
43581;DHT22;29175;51.030;4.606;2022-08-19T14:46:14;28.80;93.80
43581;DHT22;29175;51.030;4.606;2022-08-19T14:48:41;29.10;93.80
43581;DHT22;29175;51.030;4.606;2022-08-19T14:51:09;28.70;94.00
43581;DHT22;29175;51.030;4.606;2022-08-19T14:53:37;28.60;93.90
43581;DHT22;29175;51.030;4.606;2022-08-19T14:56:11;28.30;94.40
43581;DHT22;29175;51.030;4.606;2022-08-19T14:58:41;28.10;94.80
43581;DHT22;29175;51.030;4.606;2022-08-19T15:01:09;28.20;95.10
43581;DHT22;29175;51.030;4.606;2022-08-19T15:03:38;28.30;95.40
43581;DHT22;29175;51.030;4.606;2022-08-19T15:06:05;28.10;95.70
43581;DHT22;29175;51.030;4.606;2022-08-19T15:08:34;28.00;95.80
43581;DHT22;29175;51.030;4.606;2022-08-19T15:11:01;27.90;96.00
43581;DHT22;29175;51.030;4.606;2022-08-19T15:13:29;27.80;96.30
43581;DHT22;29175;51.030;4.606;2022-08-19T15:15:56;27.80;95.90
43581;DHT22;29175;51.030;4.606;2022-08-19T15:18:22;27.70;96.20
43581;DHT22;29175;51.030;4.606;2022-08-19T15:20:49;27.40;96.10
43581;DHT22;29175;51.030;4.606;2022-08-19T15:23:16;27.50;96.30
43581;DHT22;29175;51.030;4.606;2022-08-19T15:25:42;27.80;96.20
43581;DHT22;29175;51.030;4.606;2022-08-19T15:28:10;27.60;96.40
43581;DHT22;29175;51.030;4.606;2022-08-19T15:30:39;27.60;96.60
43581;DHT22;29175;51.030;4.606;2022-08-19T15:33:06;27.30;97.40
43581;DHT22;29175;51.030;4.606;2022-08-19T15:35:35;27.30;97.30
43581;DHT22;29175;51.030;4.606;2022-08-19T15:38:01;27.50;97.10
43581;DHT22;29175;51.030;4.606;2022-08-19T15:40:28;27.30;97.80
43581;DHT22;29175;51.030;4.606;2022-08-19T15:42:53;27.20;98.10
43581;DHT22;29175;51.030;4.606;2022-08-19T15:45:22;27.30;98.00
43581;DHT22;29175;51.030;4.606;2022-08-19T15:47:48;27.50;97.30
43581;DHT22;29175;51.030;4.606;2022-08-19T15:50:18;27.40;97.00